Shartlesville, Pennsylvania
Current Conditions -  °F | °C
As of 6:54 AM on Monday 26 Jan 2015 (Local Time) from KRDG Reporting Station
Overcast Overcast  
Wind Chill: 11°   Ceiling: 1700
Heat Index: 21°   Visibility: 10mi
Dew Point: 17°   Wind: 9mph
Humidity: 85%   Direction: 20°NNE
Pressure: 29.89"   Gusts: NA
Location:  40.51°N, 76.1°W
Report Text: KRDG 261154Z AUTO 02008KT 10SM OVC017 M06/M08 A2989 RMK AO2 SNE04 SLP132 P0000 60000 T10611083 11022 21061 56010
Loading
Personal Weather Stations






























Interactive Weather Map New forecast layout! Learn more

10-Day Weather Forecast

Advertisements
Track Severe Weather on mobile